sensor_id;sensor_type;location;lat;lon;timestamp;P1;durP1;ratioP1;P2;durP2;ratioP2
76290;SDS011;65100;46.884;17.410;2023-02-10T00:01:46;27.33;;;11.68;;
76290;SDS011;65100;46.884;17.410;2023-02-10T00:04:12;30.60;;;13.30;;
76290;SDS011;65100;46.884;17.410;2023-02-10T00:06:38;33.50;;;12.20;;
76290;SDS011;65100;46.884;17.410;2023-02-10T00:09:06;30.40;;;12.63;;
76290;SDS011;65100;46.884;17.410;2023-02-10T00:11:31;27.73;;;10.90;;
76290;SDS011;65100;46.884;17.410;2023-02-10T00:14:17;27.75;;;11.10;;
76290;SDS011;65100;46.884;17.410;2023-02-10T00:16:44;30.58;;;12.07;;
76290;SDS011;65100;46.884;17.410;2023-02-10T00:19:09;29.20;;;11.57;;
76290;SDS011;65100;46.884;17.410;2023-02-10T00:21:35;32.93;;;12.23;;
76290;SDS011;65100;46.884;17.410;2023-02-10T00:24:00;30.70;;;11.53;;
76290;SDS011;65100;46.884;17.410;2023-02-10T00:26:26;29.53;;;12.07;;
76290;SDS011;65100;46.884;17.410;2023-02-10T00:28:52;31.80;;;12.70;;
76290;SDS011;65100;46.884;17.410;2023-02-10T00:31:17;31.60;;;12.53;;
76290;SDS011;65100;46.884;17.410;2023-02-10T00:33:44;27.55;;;11.00;;
76290;SDS011;65100;46.884;17.410;2023-02-10T00:36:11;30.30;;;11.88;;
76290;SDS011;65100;46.884;17.410;2023-02-10T00:38:37;28.67;;;11.68;;
76290;SDS011;65100;46.884;17.410;2023-02-10T00:41:18;30.07;;;11.90;;
76290;SDS011;65100;46.884;17.410;2023-02-10T00:43:45;30.13;;;11.07;;
76290;SDS011;65100;46.884;17.410;2023-02-10T00:46:11;31.95;;;12.55;;
76290;SDS011;65100;46.884;17.410;2023-02-10T00:48:37;29.17;;;11.27;;
76290;SDS011;65100;46.884;17.410;2023-02-10T00:51:03;29.80;;;12.43;;
76290;SDS011;65100;46.884;17.410;2023-02-10T00:53:29;26.67;;;10.93;;
76290;SDS011;65100;46.884;17.410;2023-02-10T00:55:55;23.70;;;9.60;;
76290;SDS011;65100;46.884;17.410;2023-02-10T00:58:20;27.23;;;10.15;;
76290;SDS011;65100;46.884;17.410;2023-02-10T01:00:46;23.67;;;9.70;;
76290;SDS011;65100;46.884;17.410;2023-02-10T01:03:12;30.33;;;10.23;;
76290;SDS011;65100;46.884;17.410;2023-02-10T01:05:37;29.40;;;11.13;;
76290;SDS011;65100;46.884;17.410;2023-02-10T01:08:03;29.10;;;11.93;;
76290;SDS011;65100;46.884;17.410;2023-02-10T01:10:29;29.73;;;11.88;;
76290;SDS011;65100;46.884;17.410;2023-02-10T01:12:54;25.37;;;10.43;;
76290;SDS011;65100;46.884;17.410;2023-02-10T01:15:19;28.70;;;12.23;;
76290;SDS011;65100;46.884;17.410;2023-02-10T01:17:45;27.20;;;11.50;;
76290;SDS011;65100;46.884;17.410;2023-02-10T01:20:11;27.93;;;11.70;;
76290;SDS011;65100;46.884;17.410;2023-02-10T01:22:36;27.40;;;11.48;;
76290;SDS011;65100;46.884;17.410;2023-02-10T01:25:02;29.83;;;11.07;;
76290;SDS011;65100;46.884;17.410;2023-02-10T01:27:28;27.15;;;10.40;;
76290;SDS011;65100;46.884;17.410;2023-02-10T01:29:54;25.88;;;11.07;;
76290;SDS011;65100;46.884;17.410;2023-02-10T01:32:19;24.50;;;10.10;;
76290;SDS011;65100;46.884;17.410;2023-02-10T01:34:45;26.48;;;10.25;;
76290;SDS011;65100;46.884;17.410;2023-02-10T01:37:10;26.37;;;9.73;;
76290;SDS011;65100;46.884;17.410;2023-02-10T01:39:36;27.37;;;11.63;;
76290;SDS011;65100;46.884;17.410;2023-02-10T01:42:02;27.60;;;11.50;;
76290;SDS011;65100;46.884;17.410;2023-02-10T01:46:53;27.77;;;10.57;;
76290;SDS011;65100;46.884;17.410;2023-02-10T01:49:27;28.00;;;9.73;;
76290;SDS011;65100;46.884;17.410;2023-02-10T01:51:59;25.17;;;9.27;;
76290;SDS011;65100;46.884;17.410;2023-02-10T01:54:50;30.33;;;10.75;;
76290;SDS011;65100;46.884;17.410;2023-02-10T01:57:19;27.40;;;9.80;;
76290;SDS011;65100;46.884;17.410;2023-02-10T01:59:46;28.67;;;11.18;;
76290;SDS011;65100;46.884;17.410;2023-02-10T02:02:12;27.47;;;10.87;;
76290;SDS011;65100;46.884;17.410;2023-02-10T02:04:44;30.05;;;11.23;;
76290;SDS011;65100;46.884;17.410;2023-02-10T02:07:13;27.92;;;10.48;;
76290;SDS011;65100;46.884;17.410;2023-02-10T02:09:39;26.95;;;10.30;;
76290;SDS011;65100;46.884;17.410;2023-02-10T02:12:08;29.17;;;11.00;;
76290;SDS011;65100;46.884;17.410;2023-02-10T02:14:43;29.15;;;10.40;;
76290;SDS011;65100;46.884;17.410;2023-02-10T02:28:31;27.08;;;10.60;;
76290;SDS011;65100;46.884;17.410;2023-02-10T02:33:55;27.50;;;10.73;;
76290;SDS011;65100;46.884;17.410;2023-02-10T02:36:30;31.05;;;11.40;;
76290;SDS011;65100;46.884;17.410;2023-02-10T02:39:02;27.10;;;10.53;;
76290;SDS011;65100;46.884;17.410;2023-02-10T02:41:30;24.98;;;10.07;;
76290;SDS011;65100;46.884;17.410;2023-02-10T02:43:56;28.88;;;11.27;;
76290;SDS011;65100;46.884;17.410;2023-02-10T02:51:34;25.93;;;10.03;;
76290;SDS011;65100;46.884;17.410;2023-02-10T02:54:13;24.38;;;9.43;;
76290;SDS011;65100;46.884;17.410;2023-02-10T03:02:16;28.35;;;10.20;;
76290;SDS011;65100;46.884;17.410;2023-02-10T03:04:47;29.93;;;11.00;;
76290;SDS011;65100;46.884;17.410;2023-02-10T03:07:13;28.48;;;10.40;;
76290;SDS011;65100;46.884;17.410;2023-02-10T03:09:39;26.95;;;11.18;;
76290;SDS011;65100;46.884;17.410;2023-02-10T03:12:05;25.92;;;10.45;;
76290;SDS011;65100;46.884;17.410;2023-02-10T03:14:30;24.80;;;9.93;;
76290;SDS011;65100;46.884;17.410;2023-02-10T03:16:56;25.23;;;10.27;;
76290;SDS011;65100;46.884;17.410;2023-02-10T03:19:21;24.67;;;8.75;;
76290;SDS011;65100;46.884;17.410;2023-02-10T03:21:47;27.10;;;10.53;;
76290;SDS011;65100;46.884;17.410;2023-02-10T03:24:13;27.13;;;9.75;;
76290;SDS011;65100;46.884;17.410;2023-02-10T03:26:39;25.00;;;9.07;;
76290;SDS011;65100;46.884;17.410;2023-02-10T03:29:05;25.92;;;9.75;;
76290;SDS011;65100;46.884;17.410;2023-02-10T03:31:31;25.23;;;10.10;;
76290;SDS011;65100;46.884;17.410;2023-02-10T03:33:56;27.17;;;9.90;;
76290;SDS011;65100;46.884;17.410;2023-02-10T03:36:22;28.85;;;10.88;;
76290;SDS011;65100;46.884;17.410;2023-02-10T03:38:48;25.90;;;9.93;;
76290;SDS011;65100;46.884;17.410;2023-02-10T03:41:13;24.83;;;9.60;;
76290;SDS011;65100;46.884;17.410;2023-02-10T03:43:39;25.90;;;10.93;;
76290;SDS011;65100;46.884;17.410;2023-02-10T03:46:06;26.42;;;10.70;;
76290;SDS011;65100;46.884;17.410;2023-02-10T03:48:32;28.67;;;11.00;;
76290;SDS011;65100;46.884;17.410;2023-02-10T03:50:58;25.70;;;10.15;;
76290;SDS011;65100;46.884;17.410;2023-02-10T03:53:25;27.37;;;10.43;;
76290;SDS011;65100;46.884;17.410;2023-02-10T03:55:51;27.33;;;10.13;;
76290;SDS011;65100;46.884;17.410;2023-02-10T03:58:16;25.20;;;9.83;;
76290;SDS011;65100;46.884;17.410;2023-02-10T04:00:42;26.73;;;10.25;;
76290;SDS011;65100;46.884;17.410;2023-02-10T04:03:07;25.60;;;10.63;;
76290;SDS011;65100;46.884;17.410;2023-02-10T04:05:33;27.27;;;10.00;;
76290;SDS011;65100;46.884;17.410;2023-02-10T04:07:58;26.85;;;10.57;;
76290;SDS011;65100;46.884;17.410;2023-02-10T04:10:24;25.07;;;10.00;;
76290;SDS011;65100;46.884;17.410;2023-02-10T04:12:49;26.57;;;8.77;;
76290;SDS011;65100;46.884;17.410;2023-02-10T04:15:14;25.40;;;10.18;;
76290;SDS011;65100;46.884;17.410;2023-02-10T04:17:40;28.23;;;9.80;;
76290;SDS011;65100;46.884;17.410;2023-02-10T04:20:06;26.80;;;10.10;;
76290;SDS011;65100;46.884;17.410;2023-02-10T04:22:32;26.83;;;10.13;;
76290;SDS011;65100;46.884;17.410;2023-02-10T04:24:57;29.30;;;10.68;;
76290;SDS011;65100;46.884;17.410;2023-02-10T04:27:23;29.00;;;11.20;;
76290;SDS011;65100;46.884;17.410;2023-02-10T04:29:48;26.53;;;10.50;;
76290;SDS011;65100;46.884;17.410;2023-02-10T04:32:14;24.17;;;9.30;;
76290;SDS011;65100;46.884;17.410;2023-02-10T04:34:39;26.67;;;9.70;;
76290;SDS011;65100;46.884;17.410;2023-02-10T04:37:05;23.97;;;9.77;;
76290;SDS011;65100;46.884;17.410;2023-02-10T04:39:31;25.40;;;9.13;;
76290;SDS011;65100;46.884;17.410;2023-02-10T04:41:56;25.03;;;9.33;;
76290;SDS011;65100;46.884;17.410;2023-02-10T04:44:21;22.97;;;9.00;;
76290;SDS011;65100;46.884;17.410;2023-02-10T04:46:47;27.60;;;9.85;;
76290;SDS011;65100;46.884;17.410;2023-02-10T04:49:15;27.88;;;11.00;;
76290;SDS011;65100;46.884;17.410;2023-02-10T04:51:41;28.63;;;10.40;;
76290;SDS011;65100;46.884;17.410;2023-02-10T04:54:07;28.63;;;10.50;;
76290;SDS011;65100;46.884;17.410;2023-02-10T04:56:32;27.60;;;9.67;;
76290;SDS011;65100;46.884;17.410;2023-02-10T04:58:58;28.83;;;10.40;;
76290;SDS011;65100;46.884;17.410;2023-02-10T05:01:23;28.63;;;10.60;;
76290;SDS011;65100;46.884;17.410;2023-02-10T05:03:49;29.80;;;11.63;;
76290;SDS011;65100;46.884;17.410;2023-02-10T05:06:14;30.27;;;11.30;;
76290;SDS011;65100;46.884;17.410;2023-02-10T05:08:40;25.05;;;9.40;;
76290;SDS011;65100;46.884;17.410;2023-02-10T05:11:13;28.42;;;9.70;;
76290;SDS011;65100;46.884;17.410;2023-02-10T05:13:40;26.92;;;10.20;;
76290;SDS011;65100;46.884;17.410;2023-02-10T05:16:09;30.70;;;10.60;;
76290;SDS011;65100;46.884;17.410;2023-02-10T05:18:36;28.07;;;10.27;;
76290;SDS011;65100;46.884;17.410;2023-02-10T05:21:04;23.70;;;9.95;;
76290;SDS011;65100;46.884;17.410;2023-02-10T05:23:33;27.95;;;10.00;;
76290;SDS011;65100;46.884;17.410;2023-02-10T05:25:59;28.40;;;10.57;;
76290;SDS011;65100;46.884;17.410;2023-02-10T05:28:25;28.83;;;12.03;;
76290;SDS011;65100;46.884;17.410;2023-02-10T05:30:50;28.25;;;10.02;;
76290;SDS011;65100;46.884;17.410;2023-02-10T05:33:16;28.27;;;10.70;;
76290;SDS011;65100;46.884;17.410;2023-02-10T05:35:41;29.47;;;10.03;;
76290;SDS011;65100;46.884;17.410;2023-02-10T05:38:07;25.50;;;8.47;;
76290;SDS011;65100;46.884;17.410;2023-02-10T05:40:33;27.57;;;10.30;;
76290;SDS011;65100;46.884;17.410;2023-02-10T05:42:58;25.08;;;10.25;;
76290;SDS011;65100;46.884;17.410;2023-02-10T05:45:24;26.87;;;10.33;;
76290;SDS011;65100;46.884;17.410;2023-02-10T05:47:49;28.95;;;10.63;;
76290;SDS011;65100;46.884;17.410;2023-02-10T05:50:16;29.40;;;11.53;;
76290;SDS011;65100;46.884;17.410;2023-02-10T05:52:42;26.17;;;10.50;;
76290;SDS011;65100;46.884;17.410;2023-02-10T05:55:08;30.52;;;11.55;;
76290;SDS011;65100;46.884;17.410;2023-02-10T05:57:33;28.73;;;10.80;;
76290;SDS011;65100;46.884;17.410;2023-02-10T05:59:59;29.50;;;10.90;;
76290;SDS011;65100;46.884;17.410;2023-02-10T06:02:24;33.13;;;10.87;;
76290;SDS011;65100;46.884;17.410;2023-02-10T06:04:50;33.55;;;11.88;;
76290;SDS011;65100;46.884;17.410;2023-02-10T06:07:16;27.10;;;9.80;;
76290;SDS011;65100;46.884;17.410;2023-02-10T06:12:28;30.00;;;9.60;;
76290;SDS011;65100;46.884;17.410;2023-02-10T06:14:54;32.72;;;11.85;;
76290;SDS011;65100;46.884;17.410;2023-02-10T06:17:19;26.93;;;10.77;;
76290;SDS011;65100;46.884;17.410;2023-02-10T06:19:44;27.70;;;10.93;;
76290;SDS011;65100;46.884;17.410;2023-02-10T06:22:10;31.83;;;11.70;;
76290;SDS011;65100;46.884;17.410;2023-02-10T06:24:36;28.47;;;10.60;;
76290;SDS011;65100;46.884;17.410;2023-02-10T06:27:01;32.77;;;12.43;;
76290;SDS011;65100;46.884;17.410;2023-02-10T06:29:27;32.67;;;11.27;;
76290;SDS011;65100;46.884;17.410;2023-02-10T06:31:52;31.53;;;11.70;;
76290;SDS011;65100;46.884;17.410;2023-02-10T06:34:18;34.40;;;15.70;;
76290;SDS011;65100;46.884;17.410;2023-02-10T06:36:43;28.83;;;11.23;;
76290;SDS011;65100;46.884;17.410;2023-02-10T06:39:09;31.77;;;11.50;;
76290;SDS011;65100;46.884;17.410;2023-02-10T06:41:34;34.70;;;12.63;;
76290;SDS011;65100;46.884;17.410;2023-02-10T06:44:00;30.23;;;12.93;;
76290;SDS011;65100;46.884;17.410;2023-02-10T06:46:25;32.17;;;12.03;;
76290;SDS011;65100;46.884;17.410;2023-02-10T06:48:51;31.70;;;12.13;;
76290;SDS011;65100;46.884;17.410;2023-02-10T06:51:17;31.67;;;12.43;;
76290;SDS011;65100;46.884;17.410;2023-02-10T06:53:42;28.63;;;12.20;;
76290;SDS011;65100;46.884;17.410;2023-02-10T06:56:08;29.87;;;11.57;;
76290;SDS011;65100;46.884;17.410;2023-02-10T06:58:35;30.70;;;12.73;;
76290;SDS011;65100;46.884;17.410;2023-02-10T07:01:00;33.45;;;11.43;;
76290;SDS011;65100;46.884;17.410;2023-02-10T07:03:31;31.33;;;11.53;;
76290;SDS011;65100;46.884;17.410;2023-02-10T07:05:57;31.27;;;12.23;;
76290;SDS011;65100;46.884;17.410;2023-02-10T07:08:22;36.03;;;13.33;;
76290;SDS011;65100;46.884;17.410;2023-02-10T07:10:48;34.47;;;13.50;;
76290;SDS011;65100;46.884;17.410;2023-02-10T07:13:13;34.10;;;14.25;;
76290;SDS011;65100;46.884;17.410;2023-02-10T07:15:39;32.63;;;13.47;;
76290;SDS011;65100;46.884;17.410;2023-02-10T07:18:04;30.40;;;12.77;;
76290;SDS011;65100;46.884;17.410;2023-02-10T07:20:30;31.90;;;13.70;;
76290;SDS011;65100;46.884;17.410;2023-02-10T07:22:55;33.37;;;14.00;;
76290;SDS011;65100;46.884;17.410;2023-02-10T07:25:20;35.27;;;14.10;;
76290;SDS011;65100;46.884;17.410;2023-02-10T07:27:46;35.60;;;14.10;;
76290;SDS011;65100;46.884;17.410;2023-02-10T07:30:11;36.08;;;13.88;;
76290;SDS011;65100;46.884;17.410;2023-02-10T07:32:37;36.70;;;15.00;;
76290;SDS011;65100;46.884;17.410;2023-02-10T07:35:03;39.33;;;14.77;;
76290;SDS011;65100;46.884;17.410;2023-02-10T07:37:29;36.10;;;15.52;;
76290;SDS011;65100;46.884;17.410;2023-02-10T07:39:54;38.90;;;15.53;;
76290;SDS011;65100;46.884;17.410;2023-02-10T07:42:20;42.13;;;17.33;;
76290;SDS011;65100;46.884;17.410;2023-02-10T07:44:45;41.45;;;16.75;;
76290;SDS011;65100;46.884;17.410;2023-02-10T07:47:11;38.10;;;15.73;;
76290;SDS011;65100;46.884;17.410;2023-02-10T07:49:36;46.20;;;19.47;;
76290;SDS011;65100;46.884;17.410;2023-02-10T07:52:02;47.85;;;20.48;;
76290;SDS011;65100;46.884;17.410;2023-02-10T07:54:27;48.93;;;21.13;;
76290;SDS011;65100;46.884;17.410;2023-02-10T07:56:53;49.90;;;22.17;;
76290;SDS011;65100;46.884;17.410;2023-02-10T07:59:21;61.40;;;25.57;;
76290;SDS011;65100;46.884;17.410;2023-02-10T08:01:46;65.40;;;27.23;;
76290;SDS011;65100;46.884;17.410;2023-02-10T08:04:12;73.03;;;29.43;;
76290;SDS011;65100;46.884;17.410;2023-02-10T08:06:38;67.60;;;28.85;;
76290;SDS011;65100;46.884;17.410;2023-02-10T08:09:04;68.50;;;28.00;;
76290;SDS011;65100;46.884;17.410;2023-02-10T08:11:30;68.87;;;27.30;;
76290;SDS011;65100;46.884;17.410;2023-02-10T08:13:56;64.40;;;26.52;;
76290;SDS011;65100;46.884;17.410;2023-02-10T08:16:21;60.83;;;27.63;;
76290;SDS011;65100;46.884;17.410;2023-02-10T08:18:47;77.73;;;31.90;;
76290;SDS011;65100;46.884;17.410;2023-02-10T08:21:12;77.28;;;29.58;;
76290;SDS011;65100;46.884;17.410;2023-02-10T08:23:38;77.83;;;31.30;;
76290;SDS011;65100;46.884;17.410;2023-02-10T08:26:07;62.77;;;26.17;;
76290;SDS011;65100;46.884;17.410;2023-02-10T08:28:35;78.30;;;33.30;;
76290;SDS011;65100;46.884;17.410;2023-02-10T08:31:02;103.97;;;40.05;;
76290;SDS011;65100;46.884;17.410;2023-02-10T08:33:29;103.10;;;39.63;;
76290;SDS011;65100;46.884;17.410;2023-02-10T08:35:55;116.20;;;45.27;;
76290;SDS011;65100;46.884;17.410;2023-02-10T08:38:21;74.83;;;32.83;;
76290;SDS011;65100;46.884;17.410;2023-02-10T08:40:53;84.32;;;35.40;;
76290;SDS011;65100;46.884;17.410;2023-02-10T08:43:22;72.70;;;31.73;;
76290;SDS011;65100;46.884;17.410;2023-02-10T08:45:48;73.10;;;32.33;;
76290;SDS011;65100;46.884;17.410;2023-02-10T08:48:13;73.23;;;31.90;;
76290;SDS011;65100;46.884;17.410;2023-02-10T08:50:38;61.00;;;25.73;;
76290;SDS011;65100;46.884;17.410;2023-02-10T08:53:04;53.90;;;22.67;;
76290;SDS011;65100;46.884;17.410;2023-02-10T08:55:29;50.20;;;21.67;;
76290;SDS011;65100;46.884;17.410;2023-02-10T08:58:16;49.90;;;20.10;;
76290;SDS011;65100;46.884;17.410;2023-02-10T09:00:41;48.87;;;21.00;;
76290;SDS011;65100;46.884;17.410;2023-02-10T09:03:07;44.63;;;18.43;;
76290;SDS011;65100;46.884;17.410;2023-02-10T09:05:34;45.10;;;18.73;;
76290;SDS011;65100;46.884;17.410;2023-02-10T09:08:01;43.33;;;18.02;;
76290;SDS011;65100;46.884;17.410;2023-02-10T09:10:26;44.57;;;17.57;;
76290;SDS011;65100;46.884;17.410;2023-02-10T09:12:52;41.53;;;17.20;;
76290;SDS011;65100;46.884;17.410;2023-02-10T09:15:17;42.37;;;18.50;;
76290;SDS011;65100;46.884;17.410;2023-02-10T09:17:43;45.25;;;19.63;;
76290;SDS011;65100;46.884;17.410;2023-02-10T09:20:09;42.80;;;17.73;;
76290;SDS011;65100;46.884;17.410;2023-02-10T09:22:35;43.17;;;19.73;;
76290;SDS011;65100;46.884;17.410;2023-02-10T09:25:00;45.23;;;19.93;;
76290;SDS011;65100;46.884;17.410;2023-02-10T09:27:26;47.93;;;19.87;;
76290;SDS011;65100;46.884;17.410;2023-02-10T09:29:51;44.92;;;19.40;;
76290;SDS011;65100;46.884;17.410;2023-02-10T09:32:17;44.17;;;19.23;;
76290;SDS011;65100;46.884;17.410;2023-02-10T09:34:42;43.93;;;19.47;;
76290;SDS011;65100;46.884;17.410;2023-02-10T09:37:09;45.13;;;20.55;;
76290;SDS011;65100;46.884;17.410;2023-02-10T09:39:35;47.00;;;20.27;;
76290;SDS011;65100;46.884;17.410;2023-02-10T09:42:08;45.83;;;20.52;;
76290;SDS011;65100;46.884;17.410;2023-02-10T09:44:35;44.78;;;19.17;;
76290;SDS011;65100;46.884;17.410;2023-02-10T09:55:33;38.63;;;15.95;;
76290;SDS011;65100;46.884;17.410;2023-02-10T10:00:55;36.10;;;14.95;;
76290;SDS011;65100;46.884;17.410;2023-02-10T10:03:34;40.75;;;18.10;;
76290;SDS011;65100;46.884;17.410;2023-02-10T10:06:12;35.97;;;15.97;;
76290;SDS011;65100;46.884;17.410;2023-02-10T10:08:57;36.25;;;15.35;;
76290;SDS011;65100;46.884;17.410;2023-02-10T10:16:54;32.20;;;15.13;;
76290;SDS011;65100;46.884;17.410;2023-02-10T10:28:13;33.75;;;13.85;;
76290;SDS011;65100;46.884;17.410;2023-02-10T10:30:51;33.13;;;14.80;;
76290;SDS011;65100;46.884;17.410;2023-02-10T10:33:24;29.90;;;13.63;;
76290;SDS011;65100;46.884;17.410;2023-02-10T10:36:04;30.48;;;13.10;;
76290;SDS011;65100;46.884;17.410;2023-02-10T10:38:33;27.48;;;12.68;;
76290;SDS011;65100;46.884;17.410;2023-02-10T10:41:03;26.83;;;12.05;;
76290;SDS011;65100;46.884;17.410;2023-02-10T10:43:31;27.60;;;12.57;;
76290;SDS011;65100;46.884;17.410;2023-02-10T10:46:03;26.23;;;11.00;;
76290;SDS011;65100;46.884;17.410;2023-02-10T10:48:36;28.17;;;12.27;;
76290;SDS011;65100;46.884;17.410;2023-02-10T10:51:06;32.85;;;14.50;;
76290;SDS011;65100;46.884;17.410;2023-02-10T10:53:40;28.52;;;12.55;;
76290;SDS011;65100;46.884;17.410;2023-02-10T10:56:15;26.58;;;12.80;;
76290;SDS011;65100;46.884;17.410;2023-02-10T10:58:45;26.73;;;12.53;;
76290;SDS011;65100;46.884;17.410;2023-02-10T11:01:13;30.35;;;12.90;;
76290;SDS011;65100;46.884;17.410;2023-02-10T11:03:39;28.48;;;13.48;;
76290;SDS011;65100;46.884;17.410;2023-02-10T11:06:17;30.37;;;12.73;;
76290;SDS011;65100;46.884;17.410;2023-02-10T11:08:44;29.45;;;12.35;;
76290;SDS011;65100;46.884;17.410;2023-02-10T11:11:30;26.30;;;11.48;;
76290;SDS011;65100;46.884;17.410;2023-02-10T11:14:01;25.65;;;12.52;;
76290;SDS011;65100;46.884;17.410;2023-02-10T11:16:28;27.42;;;12.60;;
76290;SDS011;65100;46.884;17.410;2023-02-10T11:18:58;27.53;;;12.80;;
76290;SDS011;65100;46.884;17.410;2023-02-10T11:21:34;29.08;;;13.65;;
76290;SDS011;65100;46.884;17.410;2023-02-10T11:27:05;28.67;;;13.40;;
76290;SDS011;65100;46.884;17.410;2023-02-10T11:29:45;27.70;;;12.13;;
76290;SDS011;65100;46.884;17.410;2023-02-10T11:34:46;28.70;;;13.00;;
76290;SDS011;65100;46.884;17.410;2023-02-10T11:37:27;28.48;;;12.23;;
76290;SDS011;65100;46.884;17.410;2023-02-10T11:39:56;27.20;;;12.27;;
76290;SDS011;65100;46.884;17.410;2023-02-10T11:42:25;28.35;;;13.73;;
76290;SDS011;65100;46.884;17.410;2023-02-10T11:47:26;29.58;;;13.32;;
76290;SDS011;65100;46.884;17.410;2023-02-10T11:49:53;27.45;;;12.00;;
76290;SDS011;65100;46.884;17.410;2023-02-10T11:52:20;30.87;;;13.60;;
76290;SDS011;65100;46.884;17.410;2023-02-10T11:54:48;28.00;;;13.70;;
76290;SDS011;65100;46.884;17.410;2023-02-10T12:00:17;25.98;;;11.55;;
76290;SDS011;65100;46.884;17.410;2023-02-10T12:11:32;28.30;;;11.67;;
76290;SDS011;65100;46.884;17.410;2023-02-10T12:17:27;28.63;;;13.88;;
76290;SDS011;65100;46.884;17.410;2023-02-10T12:23:01;28.02;;;12.30;;
76290;SDS011;65100;46.884;17.410;2023-02-10T12:42:58;26.33;;;11.45;;
76290;SDS011;65100;46.884;17.410;2023-02-10T12:48:09;25.98;;;12.27;;
76290;SDS011;65100;46.884;17.410;2023-02-10T12:50:46;28.67;;;12.55;;
76290;SDS011;65100;46.884;17.410;2023-02-10T12:53:21;30.00;;;12.63;;
76290;SDS011;65100;46.884;17.410;2023-02-10T12:58:21;26.80;;;12.68;;
76290;SDS011;65100;46.884;17.410;2023-02-10T13:03:44;26.75;;;12.48;;
76290;SDS011;65100;46.884;17.410;2023-02-10T13:15:06;26.92;;;13.07;;
76290;SDS011;65100;46.884;17.410;2023-02-10T13:17:56;30.15;;;13.93;;
76290;SDS011;65100;46.884;17.410;2023-02-10T13:25:47;27.60;;;13.18;;
76290;SDS011;65100;46.884;17.410;2023-02-10T13:34:36;25.37;;;12.30;;
76290;SDS011;65100;46.884;17.410;2023-02-10T13:36:50;28.00;;;12.50;;
76290;SDS011;65100;46.884;17.410;2023-02-10T13:39:21;29.50;;;13.65;;
76290;SDS011;65100;46.884;17.410;2023-02-10T13:42:03;26.65;;;12.80;;
76290;SDS011;65100;46.884;17.410;2023-02-10T13:44:57;30.55;;;13.90;;
76290;SDS011;65100;46.884;17.410;2023-02-10T13:49:58;30.45;;;13.02;;
76290;SDS011;65100;46.884;17.410;2023-02-10T13:52:31;30.27;;;12.88;;
76290;SDS011;65100;46.884;17.410;2023-02-10T13:55:01;28.20;;;13.63;;
76290;SDS011;65100;46.884;17.410;2023-02-10T13:57:54;30.50;;;13.52;;
76290;SDS011;65100;46.884;17.410;2023-02-10T14:03:03;30.15;;;13.32;;
76290;SDS011;65100;46.884;17.410;2023-02-10T14:06:07;28.25;;;12.70;;
76290;SDS011;65100;46.884;17.410;2023-02-10T14:13:39;28.70;;;12.70;;
76290;SDS011;65100;46.884;17.410;2023-02-10T14:19:00;29.73;;;14.10;;
76290;SDS011;65100;46.884;17.410;2023-02-10T14:21:41;28.60;;;13.27;;
76290;SDS011;65100;46.884;17.410;2023-02-10T14:24:15;29.20;;;14.52;;
76290;SDS011;65100;46.884;17.410;2023-02-10T14:26:47;27.93;;;13.17;;
76290;SDS011;65100;46.884;17.410;2023-02-10T14:29:15;31.80;;;14.23;;
76290;SDS011;65100;46.884;17.410;2023-02-10T14:31:44;30.98;;;14.27;;
76290;SDS011;65100;46.884;17.410;2023-02-10T14:34:20;30.98;;;15.07;;
76290;SDS011;65100;46.884;17.410;2023-02-10T14:36:52;34.88;;;16.38;;
76290;SDS011;65100;46.884;17.410;2023-02-10T14:39:19;32.17;;;14.60;;
76290;SDS011;65100;46.884;17.410;2023-02-10T14:41:47;32.65;;;16.15;;
76290;SDS011;65100;46.884;17.410;2023-02-10T14:44:59;32.58;;;16.05;;
76290;SDS011;65100;46.884;17.410;2023-02-10T14:47:05;32.35;;;15.15;;
76290;SDS011;65100;46.884;17.410;2023-02-10T14:49:31;34.03;;;17.08;;
76290;SDS011;65100;46.884;17.410;2023-02-10T14:52:00;32.17;;;14.70;;
76290;SDS011;65100;46.884;17.410;2023-02-10T14:54:27;31.85;;;14.88;;
76290;SDS011;65100;46.884;17.410;2023-02-10T14:57:01;32.72;;;15.85;;
76290;SDS011;65100;46.884;17.410;2023-02-10T14:59:28;30.87;;;14.57;;
76290;SDS011;65100;46.884;17.410;2023-02-10T15:01:55;30.85;;;16.10;;
76290;SDS011;65100;46.884;17.410;2023-02-10T15:04:24;35.00;;;16.08;;
76290;SDS011;65100;46.884;17.410;2023-02-10T15:06:54;32.85;;;15.52;;
76290;SDS011;65100;46.884;17.410;2023-02-10T15:09:22;33.88;;;15.85;;
76290;SDS011;65100;46.884;17.410;2023-02-10T15:11:53;32.77;;;15.37;;
76290;SDS011;65100;46.884;17.410;2023-02-10T15:15:00;32.42;;;15.88;;
76290;SDS011;65100;46.884;17.410;2023-02-10T15:22:39;32.00;;;16.10;;
76290;SDS011;65100;46.884;17.410;2023-02-10T15:25:22;34.17;;;16.83;;
76290;SDS011;65100;46.884;17.410;2023-02-10T15:27:55;32.72;;;15.40;;
76290;SDS011;65100;46.884;17.410;2023-02-10T15:30:26;31.80;;;15.20;;
76290;SDS011;65100;46.884;17.410;2023-02-10T15:32:57;34.85;;;16.25;;
76290;SDS011;65100;46.884;17.410;2023-02-10T15:35:24;34.92;;;16.80;;
76290;SDS011;65100;46.884;17.410;2023-02-10T15:37:51;35.37;;;16.00;;
76290;SDS011;65100;46.884;17.410;2023-02-10T15:40:22;33.42;;;15.65;;
76290;SDS011;65100;46.884;17.410;2023-02-10T15:45:23;33.22;;;16.85;;
76290;SDS011;65100;46.884;17.410;2023-02-10T15:47:58;34.40;;;16.60;;
76290;SDS011;65100;46.884;17.410;2023-02-10T15:50:24;33.37;;;15.97;;
76290;SDS011;65100;46.884;17.410;2023-02-10T15:52:50;33.58;;;16.48;;
76290;SDS011;65100;46.884;17.410;2023-02-10T15:55:17;34.60;;;16.27;;
76290;SDS011;65100;46.884;17.410;2023-02-10T15:57:47;33.63;;;16.00;;
76290;SDS011;65100;46.884;17.410;2023-02-10T16:02:38;37.27;;;16.30;;
76290;SDS011;65100;46.884;17.410;2023-02-10T16:05:04;35.55;;;17.00;;
76290;SDS011;65100;46.884;17.410;2023-02-10T16:07:30;35.60;;;16.50;;
76290;SDS011;65100;46.884;17.410;2023-02-10T16:09:55;36.07;;;15.87;;
76290;SDS011;65100;46.884;17.410;2023-02-10T16:12:21;35.58;;;16.33;;
76290;SDS011;65100;46.884;17.410;2023-02-10T16:14:47;36.47;;;15.73;;
76290;SDS011;65100;46.884;17.410;2023-02-10T16:17:23;35.67;;;15.75;;
76290;SDS011;65100;46.884;17.410;2023-02-10T16:19:50;38.08;;;15.93;;
76290;SDS011;65100;46.884;17.410;2023-02-10T16:22:17;37.00;;;16.50;;
76290;SDS011;65100;46.884;17.410;2023-02-10T16:24:42;36.28;;;15.30;;
76290;SDS011;65100;46.884;17.410;2023-02-10T16:27:09;35.47;;;16.43;;
76290;SDS011;65100;46.884;17.410;2023-02-10T16:29:35;31.58;;;14.73;;
76290;SDS011;65100;46.884;17.410;2023-02-10T16:32:01;33.05;;;14.00;;
76290;SDS011;65100;46.884;17.410;2023-02-10T16:34:26;29.17;;;13.43;;
76290;SDS011;65100;46.884;17.410;2023-02-10T16:36:56;26.35;;;12.45;;
76290;SDS011;65100;46.884;17.410;2023-02-10T16:39:22;28.43;;;12.80;;
76290;SDS011;65100;46.884;17.410;2023-02-10T16:41:51;28.40;;;12.13;;
76290;SDS011;65100;46.884;17.410;2023-02-10T16:44:17;29.42;;;12.35;;
76290;SDS011;65100;46.884;17.410;2023-02-10T16:46:44;28.07;;;11.87;;
76290;SDS011;65100;46.884;17.410;2023-02-10T16:49:12;29.77;;;13.30;;